createdAt,value
2023-05-23T00:01:17.040Z,73.13
2023-05-23T00:03:45.336Z,70.77
2023-05-23T00:06:14.717Z,62.03
2023-05-23T00:08:42.940Z,64.73
2023-05-23T00:11:11.158Z,68.03
2023-05-23T00:13:40.726Z,71.17
2023-05-23T00:16:09.611Z,65.43
2023-05-23T00:18:37.924Z,63.33
2023-05-23T00:21:06.144Z,67.73
2023-05-23T00:23:34.429Z,66.70
2023-05-23T00:26:02.664Z,67.03
2023-05-23T00:28:30.883Z,67.87
2023-05-23T00:31:00.460Z,66.17
2023-05-23T00:33:29.753Z,61.03
2023-05-23T00:35:58.126Z,61.23
2023-05-23T00:38:26.731Z,59.40
2023-05-23T00:40:54.934Z,61.73
2023-05-23T00:43:23.663Z,63.20
2023-05-23T00:45:51.869Z,58.30
2023-05-23T00:48:21.447Z,60.80
2023-05-23T00:50:49.712Z,54.90
2023-05-23T00:53:18.022Z,57.33
2023-05-23T00:55:46.390Z,55.50
2023-05-23T00:58:15.933Z,52.87
2023-05-23T01:00:44.946Z,50.23
2023-05-23T01:03:18.482Z,49.37
2023-05-23T01:05:49.126Z,53.07
2023-05-23T01:08:17.597Z,43.67
2023-05-23T01:10:45.819Z,47.50
2023-05-23T01:13:19.439Z,49.70
2023-05-23T01:15:51.331Z,47.53
2023-05-23T01:18:21.232Z,46.50
2023-05-23T01:20:52.435Z,51.10
2023-05-23T01:23:31.793Z,50.47
2023-05-23T01:26:05.699Z,55.57
2023-05-23T01:28:38.286Z,46.20
2023-05-23T01:31:08.573Z,50.03
2023-05-23T01:33:36.864Z,49.63
2023-05-23T01:36:05.260Z,52.97
2023-05-23T01:38:33.466Z,50.67
2023-05-23T01:41:01.712Z,44.70
2023-05-23T01:43:29.950Z,46.63
2023-05-23T01:46:00.537Z,41.33
2023-05-23T01:48:29.637Z,35.77
2023-05-23T01:50:58.172Z,37.17
2023-05-23T01:53:26.870Z,38.03
2023-05-23T01:55:55.733Z,32.23
2023-05-23T01:58:23.977Z,38.50
2023-05-23T02:00:52.237Z,35.50
2023-05-23T02:03:21.933Z,37.77
2023-05-23T02:05:50.310Z,34.00
2023-05-23T02:08:18.522Z,34.63
2023-05-23T02:10:46.789Z,33.47
2023-05-23T02:13:14.997Z,35.97
2023-05-23T02:15:43.256Z,30.73
2023-05-23T02:18:11.627Z,35.50
2023-05-23T02:20:41.264Z,36.67
2023-05-23T02:23:09.980Z,34.37
2023-05-23T02:25:38.275Z,39.23
2023-05-23T02:28:06.534Z,27.93
2023-05-23T02:30:34.788Z,29.93
2023-05-23T02:33:06.628Z,28.87
2023-05-23T02:35:35.050Z,33.77
2023-05-23T02:38:04.584Z,29.00
2023-05-23T02:40:32.818Z,28.43
2023-05-23T02:43:01.056Z,25.10
2023-05-23T02:45:29.281Z,21.70
2023-05-23T02:47:57.548Z,23.80
2023-05-23T02:50:26.125Z,23.23
2023-05-23T02:52:54.365Z,20.93
2023-05-23T02:55:24.084Z,21.07
2023-05-23T02:57:52.441Z,18.90
2023-05-23T03:00:21.257Z,20.20
2023-05-23T03:02:49.553Z,16.67
2023-05-23T03:05:17.938Z,19.20
2023-05-23T03:07:46.117Z,18.53
2023-05-23T03:10:14.308Z,18.83
2023-05-23T03:12:44.058Z,18.47
2023-05-23T03:15:12.431Z,17.23
2023-05-23T03:17:40.840Z,18.40
2023-05-23T03:20:09.951Z,19.43
2023-05-23T03:22:38.274Z,20.27
2023-05-23T03:25:06.957Z,21.33
2023-05-23T03:27:35.248Z,18.27
2023-05-23T03:30:05.154Z,17.90
2023-05-23T03:32:33.470Z,22.23
2023-05-23T03:35:01.751Z,20.67
2023-05-23T03:37:29.956Z,22.70
2023-05-23T03:39:58.173Z,22.17
2023-05-23T03:42:26.857Z,19.73
2023-05-23T03:44:55.088Z,22.27
2023-05-23T03:47:24.939Z,26.87
2023-05-23T03:49:53.194Z,23.10
2023-05-23T03:52:21.398Z,25.57
2023-05-23T03:54:49.575Z,20.07
2023-05-23T03:57:17.742Z,24.90
2023-05-23T03:59:46.224Z,24.50
2023-05-23T04:02:14.447Z,26.93
2023-05-23T04:04:44.079Z,27.93
2023-05-23T04:07:12.436Z,24.73
2023-05-23T04:09:40.616Z,24.77
2023-05-23T04:12:09.619Z,24.57
2023-05-23T04:14:39.333Z,24.53
2023-05-23T04:17:08.962Z,24.37
2023-05-23T04:19:37.478Z,25.30
2023-05-23T04:22:07.362Z,22.70
2023-05-23T04:24:35.654Z,21.80
2023-05-23T04:27:03.869Z,18.60
2023-05-23T04:29:33.240Z,21.27
2023-05-23T04:32:01.508Z,22.73
2023-05-23T04:34:30.687Z,21.47
2023-05-23T04:37:01.770Z,19.93
2023-05-23T04:39:31.560Z,23.40
2023-05-23T04:41:59.798Z,22.00
2023-05-23T04:44:30.201Z,20.63
2023-05-23T04:46:58.427Z,24.57
2023-05-23T04:49:26.881Z,21.70
2023-05-23T04:51:55.131Z,19.83
2023-05-23T04:54:23.341Z,18.83
2023-05-23T04:56:53.008Z,16.90
2023-05-23T04:59:21.218Z,22.10
2023-05-23T05:01:49.483Z,17.97
2023-05-23T05:04:17.864Z,21.07
2023-05-23T05:06:48.052Z,20.83
2023-05-23T05:09:16.376Z,23.03
2023-05-23T05:11:44.664Z,22.40
2023-05-23T05:14:14.266Z,20.50
2023-05-23T05:16:42.805Z,20.70
2023-05-23T05:19:11.160Z,22.63
2023-05-23T05:21:39.405Z,22.23
2023-05-23T05:24:09.537Z,17.93
2023-05-23T05:26:37.922Z,18.90
2023-05-23T05:29:06.347Z,21.47
2023-05-23T05:31:37.685Z,26.93
2023-05-23T05:34:06.281Z,22.20
2023-05-23T05:36:34.498Z,23.77
2023-05-23T05:39:02.715Z,19.33
2023-05-23T05:41:30.952Z,21.03
2023-05-23T05:43:59.165Z,22.10
2023-05-23T05:46:27.445Z,21.87
2023-05-23T05:48:57.018Z,20.90
2023-05-23T05:51:25.613Z,21.93
2023-05-23T05:53:53.824Z,17.93
2023-05-23T05:56:22.625Z,19.27
2023-05-23T05:58:50.887Z,21.00
2023-05-23T06:01:19.162Z,19.40
2023-05-23T06:03:47.940Z,24.03
2023-05-23T06:06:17.758Z,18.60
2023-05-23T06:08:46.246Z,19.47
2023-05-23T06:11:14.484Z,20.67
2023-05-23T06:13:42.688Z,17.03
2023-05-23T06:16:11.042Z,18.50
2023-05-23T06:18:39.267Z,18.53
2023-05-23T06:21:07.588Z,17.93
2023-05-23T06:23:37.186Z,18.13
2023-05-23T06:26:07.992Z,18.00
2023-05-23T06:28:36.162Z,17.20
2023-05-23T06:31:04.372Z,21.03
2023-05-23T06:33:32.595Z,15.20
2023-05-23T06:36:00.800Z,22.07
2023-05-23T06:38:29.609Z,17.90
2023-05-23T06:40:59.166Z,17.17
2023-05-23T06:43:27.398Z,14.13
2023-05-23T06:45:55.648Z,11.90
2023-05-23T06:48:23.860Z,16.50
2023-05-23T06:50:52.082Z,12.10
2023-05-23T06:53:20.307Z,14.60
2023-05-23T06:55:48.497Z,16.60
2023-05-23T06:58:18.039Z,14.33
2023-05-23T07:00:46.361Z,12.13
2023-05-23T07:03:14.656Z,12.47
2023-05-23T07:05:42.910Z,15.90
2023-05-23T07:08:11.894Z,14.00
2023-05-23T07:10:41.636Z,14.03
2023-05-23T07:13:10.286Z,11.70
2023-05-23T07:15:39.880Z,9.23
2023-05-23T07:18:08.190Z,12.57
2023-05-23T07:20:36.464Z,11.37
2023-05-23T07:23:04.653Z,12.57
2023-05-23T07:25:32.903Z,12.30
2023-05-23T07:28:01.110Z,13.37
2023-05-23T07:30:30.845Z,14.33
2023-05-23T07:33:01.793Z,12.43
2023-05-23T07:35:30.040Z,12.13
2023-05-23T07:37:58.374Z,12.37
2023-05-23T07:40:26.675Z,17.27
2023-05-23T07:42:55.772Z,9.47
2023-05-23T07:45:23.984Z,15.57
2023-05-23T07:47:52.783Z,14.80
2023-05-23T07:50:22.690Z,9.97
2023-05-23T07:52:51.968Z,10.93
2023-05-23T07:55:20.172Z,12.57
2023-05-23T07:57:48.376Z,11.43
2023-05-23T08:00:17.070Z,13.87
2023-05-23T08:02:45.328Z,15.70
2023-05-23T08:05:13.564Z,12.93
2023-05-23T08:07:43.207Z,15.87
2023-05-23T08:10:11.522Z,16.70
2023-05-23T08:12:40.038Z,14.37
2023-05-23T08:15:09.113Z,13.10
2023-05-23T08:17:37.556Z,14.13
2023-05-23T08:20:08.169Z,15.40
2023-05-23T08:22:37.155Z,17.40
2023-05-23T08:25:07.393Z,15.50
2023-05-23T08:27:36.736Z,18.27
2023-05-23T08:30:05.195Z,15.57
2023-05-23T08:32:33.459Z,17.13
2023-05-23T08:35:01.663Z,11.87
2023-05-23T08:37:29.884Z,12.33
2023-05-23T08:39:58.085Z,17.83
2023-05-23T08:42:27.742Z,15.47
2023-05-23T08:44:56.037Z,15.17
2023-05-23T08:47:24.311Z,15.77
2023-05-23T08:49:54.108Z,19.03
2023-05-23T08:52:23.439Z,21.20
2023-05-23T08:54:52.610Z,19.60
2023-05-23T08:57:20.831Z,22.03
2023-05-23T08:59:50.913Z,26.10
2023-05-23T09:02:19.652Z,20.37
2023-05-23T09:04:47.891Z,29.27
2023-05-23T09:07:17.725Z,20.67
2023-05-23T09:09:46.017Z,28.23
2023-05-23T09:12:15.372Z,28.93
2023-05-23T09:14:45.988Z,25.80
2023-05-23T09:17:19.837Z,25.23
2023-05-23T09:19:48.412Z,27.40
2023-05-23T09:22:16.721Z,23.23
2023-05-23T09:24:45.395Z,26.17
2023-05-23T09:27:13.601Z,25.00
2023-05-23T09:29:42.082Z,20.10
2023-05-23T09:32:13.997Z,17.97
2023-05-23T09:34:44.246Z,20.10
2023-05-23T09:37:19.337Z,20.57
2023-05-23T09:39:48.542Z,17.83
2023-05-23T09:42:20.469Z,16.70
2023-05-23T09:44:48.662Z,14.70
2023-05-23T09:47:17.544Z,15.33
2023-05-23T09:49:47.673Z,18.23
2023-05-23T09:52:15.886Z,13.77
2023-05-23T09:54:46.552Z,13.33
2023-05-23T09:57:16.394Z,10.57
2023-05-23T09:59:47.200Z,9.87
2023-05-23T10:02:19.543Z,10.30
2023-05-23T10:04:50.011Z,13.43
2023-05-23T10:07:20.301Z,10.57
2023-05-23T10:09:49.927Z,13.57
2023-05-23T10:12:38.299Z,12.37
2023-05-23T10:15:07.362Z,9.90
2023-05-23T10:17:38.727Z,14.77
2023-05-23T10:20:12.559Z,10.50
2023-05-23T10:22:41.245Z,9.33
2023-05-23T10:25:10.436Z,12.87
2023-05-23T10:27:39.488Z,9.30
2023-05-23T10:30:08.454Z,10.93
2023-05-23T10:32:37.174Z,11.50
2023-05-23T10:35:11.766Z,9.80
2023-05-23T10:37:42.517Z,8.47
2023-05-23T10:40:15.107Z,9.03
2023-05-23T10:42:46.144Z,12.23
2023-05-23T10:45:18.487Z,10.10
2023-05-23T10:47:48.159Z,9.80
2023-05-23T10:50:18.909Z,9.13
2023-05-23T10:52:47.113Z,9.47
2023-05-23T10:55:17.709Z,7.93
2023-05-23T10:57:46.683Z,10.67
2023-05-23T11:00:15.889Z,9.43
2023-05-23T11:02:56.422Z,9.33
2023-05-23T11:05:28.242Z,9.80
2023-05-23T11:08:09.781Z,11.73
2023-05-23T11:10:53.895Z,16.70
2023-05-23T11:13:22.553Z,14.43
2023-05-23T11:15:51.081Z,9.87
2023-05-23T11:18:22.687Z,15.63
2023-05-23T11:20:54.471Z,11.20
2023-05-23T11:23:23.375Z,16.60
2023-05-23T11:25:52.262Z,14.37
2023-05-23T11:28:20.573Z,10.50
2023-05-23T11:30:50.912Z,12.43
2023-05-23T11:33:19.855Z,15.57
2023-05-23T11:35:51.228Z,7.77
2023-05-23T11:38:21.366Z,14.37
2023-05-23T11:40:49.799Z,11.63
2023-05-23T11:43:19.593Z,9.50
2023-05-23T11:45:48.034Z,11.90
2023-05-23T11:48:17.044Z,10.43
2023-05-23T11:50:46.142Z,9.93
2023-05-23T11:53:17.038Z,7.27
2023-05-23T11:55:53.114Z,9.93
2023-05-23T11:58:22.285Z,11.87
2023-05-23T12:00:51.700Z,12.63
2023-05-23T12:03:21.506Z,11.90
2023-05-23T12:05:49.889Z,12.53
2023-05-23T12:08:18.084Z,6.43
2023-05-23T12:10:55.512Z,10.10
2023-05-23T12:13:26.156Z,13.10
2023-05-23T12:15:56.296Z,7.30
2023-05-23T12:18:24.973Z,8.10
2023-05-23T12:20:53.633Z,10.67
2023-05-23T12:23:22.904Z,11.50
2023-05-23T12:25:56.262Z,9.10
2023-05-23T12:28:39.127Z,9.73
2023-05-23T12:31:11.992Z,8.90
2023-05-23T12:33:41.214Z,7.80
2023-05-23T12:36:09.525Z,6.63
2023-05-23T12:38:40.822Z,8.17
2023-05-23T12:41:14.437Z,11.10
2023-05-23T12:43:42.766Z,7.60
2023-05-23T12:46:11.085Z,8.80
2023-05-23T12:48:39.554Z,10.37
2023-05-23T12:51:07.795Z,7.53
2023-05-23T12:53:36.541Z,13.80
2023-05-23T12:56:04.797Z,10.83
2023-05-23T12:58:35.204Z,8.17
2023-05-23T13:01:03.774Z,14.07
2023-05-23T13:03:32.253Z,7.90
2023-05-23T13:06:00.620Z,7.93
2023-05-23T13:08:29.398Z,9.90
2023-05-23T13:10:57.639Z,8.50
2023-05-23T13:13:25.888Z,6.37
2023-05-23T13:15:55.531Z,8.37
2023-05-23T13:18:23.898Z,12.63
2023-05-23T13:20:52.241Z,9.47
2023-05-23T13:23:20.743Z,7.77
2023-05-23T13:25:50.485Z,7.77
2023-05-23T13:28:18.724Z,8.07
2023-05-23T13:30:47.503Z,9.10
2023-05-23T13:33:17.386Z,8.50
2023-05-23T13:35:45.617Z,7.37
2023-05-23T13:38:13.816Z,12.27
2023-05-23T13:40:42.264Z,7.47
2023-05-23T13:43:11.058Z,7.07
2023-05-23T13:45:39.734Z,6.20
2023-05-23T13:48:08.121Z,9.60
2023-05-23T13:50:37.791Z,8.63
2023-05-23T13:53:12.181Z,7.33
2023-05-23T13:55:40.432Z,8.67
2023-05-23T13:58:08.739Z,9.30
2023-05-23T14:00:37.664Z,11.20
2023-05-23T14:03:06.302Z,8.90
2023-05-23T14:05:35.150Z,10.10
2023-05-23T14:08:05.408Z,7.10
2023-05-23T14:10:34.210Z,8.17
2023-05-23T14:13:02.548Z,8.13
2023-05-23T14:15:32.938Z,11.57
2023-05-23T14:18:02.766Z,12.37
2023-05-23T14:20:31.941Z,8.80
2023-05-23T14:23:00.209Z,11.83
2023-05-23T14:25:30.551Z,10.53
2023-05-23T14:27:58.759Z,12.57
2023-05-23T14:30:27.000Z,10.57
2023-05-23T14:32:55.283Z,11.27
2023-05-23T14:35:23.573Z,8.57
2023-05-23T14:37:51.796Z,12.03
2023-05-23T14:40:20.162Z,11.00
2023-05-23T14:42:49.722Z,10.30
2023-05-23T14:45:19.021Z,8.93
2023-05-23T14:47:47.632Z,9.07
2023-05-23T14:50:15.922Z,9.67
2023-05-23T14:52:44.172Z,8.77
2023-05-23T14:55:12.420Z,7.53
2023-05-23T14:57:40.717Z,11.37
2023-05-23T15:00:11.587Z,11.60
2023-05-23T15:02:39.846Z,10.33
2023-05-23T15:05:08.669Z,9.77
2023-05-23T15:07:38.552Z,11.40
2023-05-23T15:10:07.634Z,7.63
2023-05-23T15:12:36.049Z,13.33
2023-05-23T15:15:04.355Z,12.63
2023-05-23T15:17:34.556Z,9.17
2023-05-23T15:20:05.206Z,13.40
2023-05-23T15:22:38.527Z,8.40
2023-05-23T15:25:08.680Z,11.83
2023-05-23T15:27:37.242Z,10.03
2023-05-23T15:30:05.949Z,9.73
2023-05-23T15:32:35.694Z,12.90
2023-05-23T15:35:03.911Z,14.00
2023-05-23T15:37:32.146Z,10.50
2023-05-23T15:40:00.375Z,10.97
2023-05-23T15:42:28.566Z,6.77
2023-05-23T15:44:56.892Z,9.53
2023-05-23T15:47:25.317Z,9.10
2023-05-23T15:49:54.884Z,14.23
2023-05-23T15:52:23.095Z,11.40
2023-05-23T15:54:51.331Z,11.47
2023-05-23T15:57:19.605Z,11.50
2023-05-23T15:59:47.837Z,10.43
2023-05-23T16:02:18.799Z,12.83
2023-05-23T16:04:47.037Z,11.03
2023-05-23T16:07:18.381Z,9.13
2023-05-23T16:09:46.869Z,11.63
2023-05-23T16:12:15.075Z,11.03
2023-05-23T16:14:43.285Z,10.40
2023-05-23T16:17:11.491Z,8.60
2023-05-23T16:19:39.831Z,7.80
2023-05-23T16:22:08.245Z,11.80
2023-05-23T16:24:37.805Z,15.67
2023-05-23T16:27:06.275Z,9.03
2023-05-23T16:29:34.476Z,8.40
2023-05-23T16:32:02.961Z,12.40
2023-05-23T16:34:31.324Z,9.67
2023-05-23T16:36:59.551Z,7.80
2023-05-23T16:39:27.936Z,13.27
2023-05-23T16:41:59.628Z,12.17
2023-05-23T16:44:28.789Z,9.50
2023-05-23T16:46:57.021Z,15.43
2023-05-23T16:49:25.233Z,13.10
2023-05-23T16:51:53.488Z,7.13
2023-05-23T16:54:21.712Z,11.97
2023-05-23T16:56:49.937Z,10.90
2023-05-23T16:59:19.505Z,10.03
2023-05-23T17:01:47.766Z,9.33
2023-05-23T17:04:17.629Z,9.83
2023-05-23T17:06:47.184Z,15.57
2023-05-23T17:09:15.481Z,11.27
2023-05-23T17:11:43.732Z,11.40
2023-05-23T17:14:12.450Z,8.67
2023-05-23T17:16:42.247Z,9.20
2023-05-23T17:19:10.639Z,6.37
2023-05-23T17:21:38.925Z,12.10
2023-05-23T17:24:07.360Z,10.67
2023-05-23T17:26:35.569Z,11.10
2023-05-23T17:29:03.774Z,7.87
2023-05-23T17:31:32.033Z,8.13
2023-05-23T17:34:01.689Z,9.87
2023-05-23T17:36:29.902Z,11.00
2023-05-23T17:38:58.129Z,10.33
2023-05-23T17:41:26.821Z,11.50
2023-05-23T17:43:55.074Z,8.73
2023-05-23T17:46:23.299Z,12.23
2023-05-23T17:48:51.551Z,12.07
2023-05-23T17:51:22.232Z,12.17
2023-05-23T17:53:53.507Z,10.93
2023-05-23T17:56:23.082Z,14.77
2023-05-23T17:58:51.552Z,12.23
2023-05-23T18:01:19.921Z,10.63
2023-05-23T18:03:48.979Z,10.20
2023-05-23T18:06:17.527Z,11.33
2023-05-23T18:08:47.910Z,8.23
2023-05-23T18:11:16.153Z,9.13
2023-05-23T18:13:44.492Z,9.53
2023-05-23T18:16:12.732Z,8.73
2023-05-23T18:18:41.212Z,7.80
2023-05-23T18:21:09.757Z,10.53
2023-05-23T18:23:38.431Z,13.20
2023-05-23T18:26:08.994Z,9.27
2023-05-23T18:28:37.208Z,9.87
2023-05-23T18:31:05.606Z,10.37
2023-05-23T18:33:33.869Z,12.23
2023-05-23T18:36:02.266Z,12.17
2023-05-23T18:38:30.500Z,8.40
2023-05-23T18:40:58.719Z,13.00
2023-05-23T18:43:28.273Z,7.60
2023-05-23T18:45:56.621Z,9.77
2023-05-23T18:48:24.915Z,8.27
2023-05-23T18:50:53.130Z,10.37
2023-05-23T18:53:21.385Z,8.83
2023-05-23T18:55:49.576Z,7.83
2023-05-23T18:58:17.784Z,12.23
2023-05-23T19:00:47.769Z,11.37
2023-05-23T19:03:16.142Z,6.37
2023-05-23T19:05:44.612Z,9.17
2023-05-23T19:08:12.840Z,9.03
2023-05-23T19:10:41.860Z,7.63
2023-05-23T19:13:10.328Z,11.53
2023-05-23T19:15:38.562Z,11.50
2023-05-23T19:18:08.454Z,11.43
2023-05-23T19:20:36.764Z,10.43
2023-05-23T19:23:05.095Z,12.67
2023-05-23T19:25:33.410Z,13.00
2023-05-23T19:28:01.897Z,11.03
2023-05-23T19:30:30.215Z,13.53
2023-05-23T19:33:01.201Z,12.87
2023-05-23T19:35:30.883Z,13.00
2023-05-23T19:37:59.185Z,11.20
2023-05-23T19:40:27.482Z,17.77
2023-05-23T19:42:55.754Z,11.40
2023-05-23T19:45:23.979Z,14.50
2023-05-23T19:47:52.306Z,13.33
2023-05-23T19:50:21.909Z,13.93
2023-05-23T19:52:51.506Z,11.90
2023-05-23T19:55:19.728Z,8.53
2023-05-23T19:57:47.964Z,10.77
2023-05-23T20:00:16.508Z,11.27
2023-05-23T20:02:47.267Z,7.40
2023-05-23T20:05:16.326Z,10.80
2023-05-23T20:07:44.532Z,13.63
2023-05-23T20:10:14.171Z,8.53
2023-05-23T20:12:42.379Z,10.00
2023-05-23T20:15:10.881Z,9.43
2023-05-23T20:17:39.130Z,8.97
2023-05-23T20:20:08.631Z,12.13
2023-05-23T20:22:36.850Z,8.87
2023-05-23T20:25:05.373Z,9.00
2023-05-23T20:27:34.960Z,8.93
2023-05-23T20:30:03.958Z,10.30
2023-05-23T20:32:32.201Z,6.77
2023-05-23T20:35:00.906Z,13.33
2023-05-23T20:37:29.200Z,8.63
2023-05-23T20:39:57.931Z,7.50
2023-05-23T20:42:26.620Z,11.73
2023-05-23T20:44:58.099Z,12.73
2023-05-23T20:47:26.554Z,13.97
2023-05-23T20:49:55.999Z,25.33
2023-05-23T20:52:24.509Z,11.40
2023-05-23T20:54:54.358Z,12.63
2023-05-23T20:57:22.962Z,13.50
2023-05-23T20:59:51.155Z,13.13
2023-05-23T21:02:20.835Z,7.23
2023-05-23T21:04:49.097Z,8.93
2023-05-23T21:07:17.307Z,10.50
2023-05-23T21:09:45.978Z,13.97
2023-05-23T21:12:14.202Z,9.47
2023-05-23T21:14:42.413Z,8.87
2023-05-23T21:17:10.685Z,9.70
2023-05-23T21:19:40.365Z,10.80
2023-05-23T21:22:08.592Z,9.13
2023-05-23T21:24:36.799Z,14.53
2023-05-23T21:27:05.619Z,11.80
2023-05-23T21:29:33.809Z,14.03
2023-05-23T21:32:02.048Z,13.67
2023-05-23T21:34:30.293Z,10.40
2023-05-23T21:36:59.863Z,13.03
2023-05-23T21:39:39.243Z,13.67
2023-05-23T21:42:15.574Z,11.30
2023-05-23T21:44:43.786Z,10.10
2023-05-23T21:47:11.985Z,11.30
2023-05-23T21:49:40.358Z,10.57
2023-05-23T21:52:10.015Z,15.10
2023-05-23T21:54:38.236Z,11.27
2023-05-23T21:57:06.620Z,11.20
2023-05-23T21:59:34.853Z,7.77
2023-05-23T22:02:03.224Z,13.70
2023-05-23T22:04:32.777Z,9.70
2023-05-23T22:07:01.163Z,13.10
2023-05-23T22:09:30.736Z,9.67
2023-05-23T22:11:58.962Z,11.07
2023-05-23T22:14:27.209Z,11.03
2023-05-23T22:16:56.095Z,8.60
2023-05-23T22:19:26.130Z,16.33
2023-05-23T22:21:54.433Z,17.63
2023-05-23T22:24:22.658Z,12.97
2023-05-23T22:26:52.269Z,9.93
2023-05-23T22:29:21.066Z,8.60
2023-05-23T22:31:49.348Z,12.93
2023-05-23T22:34:17.572Z,15.77
2023-05-23T22:36:46.056Z,9.70
2023-05-23T22:39:14.287Z,5.97
2023-05-23T22:41:42.512Z,14.17
2023-05-23T22:44:12.134Z,14.93
2023-05-23T22:46:43.285Z,9.80
2023-05-23T22:49:11.561Z,12.30
2023-05-23T22:51:40.066Z,14.67
2023-05-23T22:54:08.342Z,10.93
2023-05-23T22:56:36.566Z,16.70
2023-05-23T22:59:04.816Z,13.57
2023-05-23T23:01:34.718Z,13.63
2023-05-23T23:04:02.999Z,13.83
2023-05-23T23:06:31.220Z,13.87
2023-05-23T23:08:59.440Z,8.57
2023-05-23T23:11:27.634Z,9.27
2023-05-23T23:13:55.854Z,9.53
2023-05-23T23:16:24.445Z,11.80
2023-05-23T23:18:54.093Z,9.27
2023-05-23T23:21:22.308Z,14.57
2023-05-23T23:23:50.544Z,15.67
2023-05-23T23:26:18.793Z,10.47
2023-05-23T23:28:47.029Z,14.83
2023-05-23T23:31:15.427Z,7.20
2023-05-23T23:33:43.668Z,17.07
2023-05-23T23:36:13.315Z,9.27
2023-05-23T23:38:41.518Z,8.50
2023-05-23T23:41:09.735Z,16.27
2023-05-23T23:43:37.976Z,9.87
2023-05-23T23:46:06.323Z,11.10
2023-05-23T23:48:34.556Z,12.67
2023-05-23T23:51:02.774Z,14.50
2023-05-23T23:53:32.342Z,9.93
2023-05-23T23:56:00.746Z,10.33
2023-05-23T23:58:28.991Z,12.27
